sensor_id;sensor_type;location;lat;lon;timestamp;P1;durP1;ratioP1;P2;durP2;ratioP2
16468;SDS011;8345;50.902;6.956;2023-12-29T00:01:29;2.83;;;1.60;;
16468;SDS011;8345;50.902;6.956;2023-12-29T00:03:56;2.87;;;1.10;;
16468;SDS011;8345;50.902;6.956;2023-12-29T00:06:24;2.80;;;1.37;;
16468;SDS011;8345;50.902;6.956;2023-12-29T00:08:51;3.37;;;1.57;;
16468;SDS011;8345;50.902;6.956;2023-12-29T00:11:20;2.97;;;2.17;;
16468;SDS011;8345;50.902;6.956;2023-12-29T00:13:47;1.93;;;1.23;;
16468;SDS011;8345;50.902;6.956;2023-12-29T00:16:14;3.50;;;1.70;;
16468;SDS011;8345;50.902;6.956;2023-12-29T00:18:42;3.50;;;2.20;;
16468;SDS011;8345;50.902;6.956;2023-12-29T00:21:09;2.20;;;1.33;;
16468;SDS011;8345;50.902;6.956;2023-12-29T00:23:36;5.10;;;1.40;;
16468;SDS011;8345;50.902;6.956;2023-12-29T00:26:03;3.83;;;1.70;;
16468;SDS011;8345;50.902;6.956;2023-12-29T00:28:32;4.73;;;2.33;;
16468;SDS011;8345;50.902;6.956;2023-12-29T00:31:01;3.63;;;2.20;;
16468;SDS011;8345;50.902;6.956;2023-12-29T00:33:28;4.80;;;1.60;;
16468;SDS011;8345;50.902;6.956;2023-12-29T00:35:56;2.60;;;1.23;;
16468;SDS011;8345;50.902;6.956;2023-12-29T00:38:24;4.33;;;1.80;;
16468;SDS011;8345;50.902;6.956;2023-12-29T00:40:51;3.73;;;1.17;;
16468;SDS011;8345;50.902;6.956;2023-12-29T00:43:19;3.43;;;1.33;;
16468;SDS011;8345;50.902;6.956;2023-12-29T00:45:49;3.23;;;1.40;;
16468;SDS011;8345;50.902;6.956;2023-12-29T00:48:16;2.87;;;1.70;;
16468;SDS011;8345;50.902;6.956;2023-12-29T00:50:43;2.87;;;1.30;;
16468;SDS011;8345;50.902;6.956;2023-12-29T00:53:10;4.03;;;1.93;;
16468;SDS011;8345;50.902;6.956;2023-12-29T00:55:37;4.50;;;1.90;;
16468;SDS011;8345;50.902;6.956;2023-12-29T00:58:05;5.30;;;2.10;;
16468;SDS011;8345;50.902;6.956;2023-12-29T01:00:32;4.13;;;1.60;;
16468;SDS011;8345;50.902;6.956;2023-12-29T01:03:00;3.67;;;1.93;;
16468;SDS011;8345;50.902;6.956;2023-12-29T01:05:28;5.07;;;2.00;;
16468;SDS011;8345;50.902;6.956;2023-12-29T01:07:55;2.70;;;1.70;;
16468;SDS011;8345;50.902;6.956;2023-12-29T01:10:22;4.93;;;2.43;;
16468;SDS011;8345;50.902;6.956;2023-12-29T01:12:49;2.90;;;1.60;;
16468;SDS011;8345;50.902;6.956;2023-12-29T01:15:17;4.40;;;1.60;;
16468;SDS011;8345;50.902;6.956;2023-12-29T01:17:44;6.83;;;1.90;;
16468;SDS011;8345;50.902;6.956;2023-12-29T01:20:12;3.33;;;1.90;;
16468;SDS011;8345;50.902;6.956;2023-12-29T01:22:40;2.70;;;2.00;;
16468;SDS011;8345;50.902;6.956;2023-12-29T01:25:07;4.47;;;1.90;;
16468;SDS011;8345;50.902;6.956;2023-12-29T01:27:34;5.30;;;2.27;;
16468;SDS011;8345;50.902;6.956;2023-12-29T01:30:00;5.67;;;1.90;;
16468;SDS011;8345;50.902;6.956;2023-12-29T01:32:27;3.53;;;1.70;;
16468;SDS011;8345;50.902;6.956;2023-12-29T01:34:55;3.97;;;1.50;;
16468;SDS011;8345;50.902;6.956;2023-12-29T01:37:23;4.13;;;2.07;;
16468;SDS011;8345;50.902;6.956;2023-12-29T01:39:50;2.97;;;1.97;;
16468;SDS011;8345;50.902;6.956;2023-12-29T01:42:18;4.60;;;1.80;;
16468;SDS011;8345;50.902;6.956;2023-12-29T01:44:45;3.77;;;1.57;;
16468;SDS011;8345;50.902;6.956;2023-12-29T01:47:17;2.83;;;1.50;;
16468;SDS011;8345;50.902;6.956;2023-12-29T01:49:44;5.43;;;1.50;;
16468;SDS011;8345;50.902;6.956;2023-12-29T01:52:12;5.27;;;2.20;;
16468;SDS011;8345;50.902;6.956;2023-12-29T01:54:41;4.67;;;1.87;;
16468;SDS011;8345;50.902;6.956;2023-12-29T01:57:09;4.93;;;2.07;;
16468;SDS011;8345;50.902;6.956;2023-12-29T01:59:37;2.27;;;1.77;;
16468;SDS011;8345;50.902;6.956;2023-12-29T02:02:05;4.60;;;1.70;;
16468;SDS011;8345;50.902;6.956;2023-12-29T02:04:32;2.93;;;1.50;;
16468;SDS011;8345;50.902;6.956;2023-12-29T02:07:01;4.57;;;1.50;;
16468;SDS011;8345;50.902;6.956;2023-12-29T02:09:28;4.23;;;2.00;;
16468;SDS011;8345;50.902;6.956;2023-12-29T02:12:00;6.00;;;1.83;;
16468;SDS011;8345;50.902;6.956;2023-12-29T02:14:27;3.83;;;1.60;;
16468;SDS011;8345;50.902;6.956;2023-12-29T02:16:56;4.10;;;1.67;;
16468;SDS011;8345;50.902;6.956;2023-12-29T02:19:30;5.03;;;1.80;;
16468;SDS011;8345;50.902;6.956;2023-12-29T02:22:00;4.23;;;1.50;;
16468;SDS011;8345;50.902;6.956;2023-12-29T02:24:27;5.17;;;1.40;;
16468;SDS011;8345;50.902;6.956;2023-12-29T02:26:57;4.23;;;1.83;;
16468;SDS011;8345;50.902;6.956;2023-12-29T02:29:27;3.03;;;2.13;;
16468;SDS011;8345;50.902;6.956;2023-12-29T02:31:56;6.40;;;2.13;;
16468;SDS011;8345;50.902;6.956;2023-12-29T02:34:25;5.10;;;2.20;;
16468;SDS011;8345;50.902;6.956;2023-12-29T02:36:53;4.40;;;1.83;;
16468;SDS011;8345;50.902;6.956;2023-12-29T02:39:21;6.70;;;1.57;;
16468;SDS011;8345;50.902;6.956;2023-12-29T02:41:48;3.50;;;1.60;;
16468;SDS011;8345;50.902;6.956;2023-12-29T02:44:17;4.50;;;1.60;;
16468;SDS011;8345;50.902;6.956;2023-12-29T02:46:44;4.60;;;1.77;;
16468;SDS011;8345;50.902;6.956;2023-12-29T02:49:11;6.37;;;1.83;;
16468;SDS011;8345;50.902;6.956;2023-12-29T02:51:38;4.80;;;1.67;;
16468;SDS011;8345;50.902;6.956;2023-12-29T02:54:06;3.97;;;1.80;;
16468;SDS011;8345;50.902;6.956;2023-12-29T02:56:33;3.73;;;1.87;;
16468;SDS011;8345;50.902;6.956;2023-12-29T02:59:01;4.00;;;1.73;;
16468;SDS011;8345;50.902;6.956;2023-12-29T03:01:29;3.67;;;1.57;;
16468;SDS011;8345;50.902;6.956;2023-12-29T03:03:56;3.33;;;1.73;;
16468;SDS011;8345;50.902;6.956;2023-12-29T03:06:23;3.87;;;1.50;;
16468;SDS011;8345;50.902;6.956;2023-12-29T03:08:51;4.00;;;1.40;;
16468;SDS011;8345;50.902;6.956;2023-12-29T03:11:18;3.97;;;1.67;;
16468;SDS011;8345;50.902;6.956;2023-12-29T03:13:45;7.77;;;1.47;;
16468;SDS011;8345;50.902;6.956;2023-12-29T03:16:12;6.30;;;1.77;;
16468;SDS011;8345;50.902;6.956;2023-12-29T03:18:41;5.97;;;1.80;;
16468;SDS011;8345;50.902;6.956;2023-12-29T03:21:08;2.93;;;1.50;;
16468;SDS011;8345;50.902;6.956;2023-12-29T03:23:35;3.70;;;1.40;;
16468;SDS011;8345;50.902;6.956;2023-12-29T03:26:02;7.83;;;1.90;;
16468;SDS011;8345;50.902;6.956;2023-12-29T03:28:29;3.63;;;1.73;;
16468;SDS011;8345;50.902;6.956;2023-12-29T03:30:57;7.10;;;1.70;;
16468;SDS011;8345;50.902;6.956;2023-12-29T03:33:24;4.47;;;1.37;;
16468;SDS011;8345;50.902;6.956;2023-12-29T03:35:52;3.80;;;1.40;;
16468;SDS011;8345;50.902;6.956;2023-12-29T03:38:19;4.87;;;1.53;;
16468;SDS011;8345;50.902;6.956;2023-12-29T03:40:47;6.30;;;1.70;;
16468;SDS011;8345;50.902;6.956;2023-12-29T03:43:14;4.67;;;1.50;;
16468;SDS011;8345;50.902;6.956;2023-12-29T03:45:41;4.40;;;1.97;;
16468;SDS011;8345;50.902;6.956;2023-12-29T03:48:08;3.73;;;1.40;;
16468;SDS011;8345;50.902;6.956;2023-12-29T03:50:35;3.73;;;1.50;;
16468;SDS011;8345;50.902;6.956;2023-12-29T03:53:04;5.87;;;1.60;;
16468;SDS011;8345;50.902;6.956;2023-12-29T03:55:31;4.67;;;1.47;;
16468;SDS011;8345;50.902;6.956;2023-12-29T03:57:58;4.83;;;1.50;;
16468;SDS011;8345;50.902;6.956;2023-12-29T04:00:27;4.93;;;1.43;;
16468;SDS011;8345;50.902;6.956;2023-12-29T04:02:54;3.77;;;1.40;;
16468;SDS011;8345;50.902;6.956;2023-12-29T04:05:21;3.57;;;1.27;;
16468;SDS011;8345;50.902;6.956;2023-12-29T04:07:49;3.70;;;1.53;;
16468;SDS011;8345;50.902;6.956;2023-12-29T04:10:17;4.17;;;1.50;;
16468;SDS011;8345;50.902;6.956;2023-12-29T04:12:44;6.53;;;1.40;;
16468;SDS011;8345;50.902;6.956;2023-12-29T04:15:11;3.07;;;1.27;;
16468;SDS011;8345;50.902;6.956;2023-12-29T04:17:39;2.93;;;1.27;;
16468;SDS011;8345;50.902;6.956;2023-12-29T04:20:06;6.93;;;1.40;;
16468;SDS011;8345;50.902;6.956;2023-12-29T04:22:33;4.80;;;1.30;;
16468;SDS011;8345;50.902;6.956;2023-12-29T04:25:00;3.63;;;1.50;;
16468;SDS011;8345;50.902;6.956;2023-12-29T04:27:29;2.93;;;1.30;;
16468;SDS011;8345;50.902;6.956;2023-12-29T04:29:56;5.60;;;1.30;;
16468;SDS011;8345;50.902;6.956;2023-12-29T04:32:23;5.97;;;1.33;;
16468;SDS011;8345;50.902;6.956;2023-12-29T04:34:51;3.03;;;1.17;;
16468;SDS011;8345;50.902;6.956;2023-12-29T04:37:18;3.10;;;1.30;;
16468;SDS011;8345;50.902;6.956;2023-12-29T04:39:45;5.77;;;1.60;;
16468;SDS011;8345;50.902;6.956;2023-12-29T04:42:12;5.07;;;1.30;;
16468;SDS011;8345;50.902;6.956;2023-12-29T04:44:41;6.37;;;1.27;;
16468;SDS011;8345;50.902;6.956;2023-12-29T04:47:08;3.47;;;1.40;;
16468;SDS011;8345;50.902;6.956;2023-12-29T04:49:35;3.83;;;1.50;;
16468;SDS011;8345;50.902;6.956;2023-12-29T04:52:02;2.03;;;1.37;;
16468;SDS011;8345;50.902;6.956;2023-12-29T04:54:30;2.53;;;1.33;;
16468;SDS011;8345;50.902;6.956;2023-12-29T04:56:57;3.93;;;1.53;;
16468;SDS011;8345;50.902;6.956;2023-12-29T04:59:24;3.53;;;1.30;;
16468;SDS011;8345;50.902;6.956;2023-12-29T05:01:52;3.93;;;1.07;;
16468;SDS011;8345;50.902;6.956;2023-12-29T05:04:19;5.80;;;1.33;;
16468;SDS011;8345;50.902;6.956;2023-12-29T05:06:47;2.07;;;1.13;;
16468;SDS011;8345;50.902;6.956;2023-12-29T05:09:14;2.73;;;1.30;;
16468;SDS011;8345;50.902;6.956;2023-12-29T05:11:41;2.93;;;1.37;;
16468;SDS011;8345;50.902;6.956;2023-12-29T05:14:08;3.77;;;1.37;;
16468;SDS011;8345;50.902;6.956;2023-12-29T05:16:35;4.53;;;1.70;;
16468;SDS011;8345;50.902;6.956;2023-12-29T05:19:04;4.20;;;1.50;;
16468;SDS011;8345;50.902;6.956;2023-12-29T05:21:31;3.43;;;1.30;;
16468;SDS011;8345;50.902;6.956;2023-12-29T05:23:58;4.10;;;1.30;;
16468;SDS011;8345;50.902;6.956;2023-12-29T05:26:25;2.87;;;1.10;;
16468;SDS011;8345;50.902;6.956;2023-12-29T05:28:53;3.90;;;1.20;;
16468;SDS011;8345;50.902;6.956;2023-12-29T05:31:20;4.23;;;1.40;;
16468;SDS011;8345;50.902;6.956;2023-12-29T05:33:47;3.23;;;1.40;;
16468;SDS011;8345;50.902;6.956;2023-12-29T05:36:15;4.20;;;1.90;;
16468;SDS011;8345;50.902;6.956;2023-12-29T05:38:44;5.57;;;1.53;;
16468;SDS011;8345;50.902;6.956;2023-12-29T05:41:12;5.03;;;1.43;;
16468;SDS011;8345;50.902;6.956;2023-12-29T05:43:40;4.70;;;1.40;;
16468;SDS011;8345;50.902;6.956;2023-12-29T05:46:08;5.07;;;1.30;;
16468;SDS011;8345;50.902;6.956;2023-12-29T05:48:36;7.43;;;1.57;;
16468;SDS011;8345;50.902;6.956;2023-12-29T05:51:05;6.50;;;1.47;;
16468;SDS011;8345;50.902;6.956;2023-12-29T05:53:35;2.83;;;1.50;;
16468;SDS011;8345;50.902;6.956;2023-12-29T05:56:03;3.13;;;1.60;;
16468;SDS011;8345;50.902;6.956;2023-12-29T05:58:30;3.90;;;1.33;;
16468;SDS011;8345;50.902;6.956;2023-12-29T06:00:57;4.57;;;1.50;;
16468;SDS011;8345;50.902;6.956;2023-12-29T06:03:25;5.37;;;1.63;;
16468;SDS011;8345;50.902;6.956;2023-12-29T06:05:53;4.13;;;1.30;;
16468;SDS011;8345;50.902;6.956;2023-12-29T06:08:20;5.23;;;1.80;;
16468;SDS011;8345;50.902;6.956;2023-12-29T06:10:49;9.50;;;1.90;;
16468;SDS011;8345;50.902;6.956;2023-12-29T06:13:16;3.23;;;1.50;;
16468;SDS011;8345;50.902;6.956;2023-12-29T06:15:43;4.13;;;1.40;;
16468;SDS011;8345;50.902;6.956;2023-12-29T06:18:10;4.10;;;1.60;;
16468;SDS011;8345;50.902;6.956;2023-12-29T06:20:38;3.93;;;1.70;;
16468;SDS011;8345;50.902;6.956;2023-12-29T06:23:05;4.57;;;1.53;;
16468;SDS011;8345;50.902;6.956;2023-12-29T06:25:33;4.63;;;1.50;;
16468;SDS011;8345;50.902;6.956;2023-12-29T06:28:01;5.33;;;1.40;;
16468;SDS011;8345;50.902;6.956;2023-12-29T06:30:31;4.37;;;1.80;;
16468;SDS011;8345;50.902;6.956;2023-12-29T06:32:58;6.20;;;1.43;;
16468;SDS011;8345;50.902;6.956;2023-12-29T06:35:26;3.33;;;1.63;;
16468;SDS011;8345;50.902;6.956;2023-12-29T06:37:53;2.27;;;1.10;;
16468;SDS011;8345;50.902;6.956;2023-12-29T06:40:20;4.63;;;1.60;;
16468;SDS011;8345;50.902;6.956;2023-12-29T06:42:47;5.60;;;1.33;;
16468;SDS011;8345;50.902;6.956;2023-12-29T06:45:16;3.23;;;1.00;;
16468;SDS011;8345;50.902;6.956;2023-12-29T06:47:44;4.07;;;1.27;;
16468;SDS011;8345;50.902;6.956;2023-12-29T06:50:11;4.73;;;1.40;;
16468;SDS011;8345;50.902;6.956;2023-12-29T06:52:38;4.73;;;1.20;;
16468;SDS011;8345;50.902;6.956;2023-12-29T06:55:06;3.07;;;1.20;;
16468;SDS011;8345;50.902;6.956;2023-12-29T06:57:33;1.83;;;1.20;;
16468;SDS011;8345;50.902;6.956;2023-12-29T07:00:01;3.37;;;1.40;;
16468;SDS011;8345;50.902;6.956;2023-12-29T07:02:29;3.33;;;1.10;;
16468;SDS011;8345;50.902;6.956;2023-12-29T07:04:57;2.47;;;1.00;;
16468;SDS011;8345;50.902;6.956;2023-12-29T07:07:24;3.17;;;1.30;;
16468;SDS011;8345;50.902;6.956;2023-12-29T07:09:51;2.80;;;1.37;;
16468;SDS011;8345;50.902;6.956;2023-12-29T07:12:18;2.80;;;1.10;;
16468;SDS011;8345;50.902;6.956;2023-12-29T07:14:46;3.13;;;1.27;;
16468;SDS011;8345;50.902;6.956;2023-12-29T07:17:13;3.63;;;1.03;;
16468;SDS011;8345;50.902;6.956;2023-12-29T07:19:42;3.67;;;1.20;;
16468;SDS011;8345;50.902;6.956;2023-12-29T07:22:09;3.17;;;1.13;;
16468;SDS011;8345;50.902;6.956;2023-12-29T07:24:36;2.93;;;1.30;;
16468;SDS011;8345;50.902;6.956;2023-12-29T07:27:04;3.90;;;1.10;;
16468;SDS011;8345;50.902;6.956;2023-12-29T07:29:32;4.90;;;1.00;;
16468;SDS011;8345;50.902;6.956;2023-12-29T07:31:59;6.43;;;1.77;;
16468;SDS011;8345;50.902;6.956;2023-12-29T07:34:27;1.87;;;0.90;;
16468;SDS011;8345;50.902;6.956;2023-12-29T07:36:57;3.70;;;1.10;;
16468;SDS011;8345;50.902;6.956;2023-12-29T07:39:24;5.13;;;1.33;;
16468;SDS011;8345;50.902;6.956;2023-12-29T07:41:52;4.60;;;1.40;;
16468;SDS011;8345;50.902;6.956;2023-12-29T07:44:19;3.53;;;1.10;;
16468;SDS011;8345;50.902;6.956;2023-12-29T07:46:46;2.50;;;1.07;;
16468;SDS011;8345;50.902;6.956;2023-12-29T07:49:13;5.83;;;1.20;;
16468;SDS011;8345;50.902;6.956;2023-12-29T07:51:41;5.33;;;1.60;;
16468;SDS011;8345;50.902;6.956;2023-12-29T07:54:09;1.43;;;0.83;;
16468;SDS011;8345;50.902;6.956;2023-12-29T07:56:37;2.83;;;0.90;;
16468;SDS011;8345;50.902;6.956;2023-12-29T07:59:04;1.93;;;0.90;;
16468;SDS011;8345;50.902;6.956;2023-12-29T08:01:31;1.70;;;0.83;;
16468;SDS011;8345;50.902;6.956;2023-12-29T08:03:59;2.37;;;1.03;;
16468;SDS011;8345;50.902;6.956;2023-12-29T08:06:26;2.37;;;1.00;;
16468;SDS011;8345;50.902;6.956;2023-12-29T08:08:54;0.87;;;0.70;;
16468;SDS011;8345;50.902;6.956;2023-12-29T08:11:23;2.27;;;1.10;;
16468;SDS011;8345;50.902;6.956;2023-12-29T08:13:50;2.03;;;0.87;;
16468;SDS011;8345;50.902;6.956;2023-12-29T08:16:17;3.30;;;1.17;;
16468;SDS011;8345;50.902;6.956;2023-12-29T08:18:44;2.97;;;1.37;;
16468;SDS011;8345;50.902;6.956;2023-12-29T08:21:16;1.63;;;0.83;;
16468;SDS011;8345;50.902;6.956;2023-12-29T08:23:44;2.77;;;1.07;;
16468;SDS011;8345;50.902;6.956;2023-12-29T08:26:11;3.03;;;1.10;;
16468;SDS011;8345;50.902;6.956;2023-12-29T08:28:40;3.53;;;1.20;;
16468;SDS011;8345;50.902;6.956;2023-12-29T08:31:07;3.67;;;1.03;;
16468;SDS011;8345;50.902;6.956;2023-12-29T08:33:34;3.60;;;1.50;;
16468;SDS011;8345;50.902;6.956;2023-12-29T08:36:02;4.83;;;1.60;;
16468;SDS011;8345;50.902;6.956;2023-12-29T08:38:29;3.73;;;1.50;;
16468;SDS011;8345;50.902;6.956;2023-12-29T08:40:57;2.80;;;1.30;;
16468;SDS011;8345;50.902;6.956;2023-12-29T08:43:24;3.30;;;1.30;;
16468;SDS011;8345;50.902;6.956;2023-12-29T08:45:53;4.20;;;1.47;;
16468;SDS011;8345;50.902;6.956;2023-12-29T08:48:20;4.37;;;1.20;;
16468;SDS011;8345;50.902;6.956;2023-12-29T08:50:47;2.97;;;1.30;;
16468;SDS011;8345;50.902;6.956;2023-12-29T08:53:14;3.43;;;1.33;;
16468;SDS011;8345;50.902;6.956;2023-12-29T08:55:41;9.50;;;1.57;;
16468;SDS011;8345;50.902;6.956;2023-12-29T08:58:09;2.73;;;1.33;;
16468;SDS011;8345;50.902;6.956;2023-12-29T09:00:36;4.97;;;1.63;;
16468;SDS011;8345;50.902;6.956;2023-12-29T09:03:04;3.67;;;1.50;;
16468;SDS011;8345;50.902;6.956;2023-12-29T09:05:32;4.50;;;1.70;;
16468;SDS011;8345;50.902;6.956;2023-12-29T09:07:59;4.83;;;1.60;;
16468;SDS011;8345;50.902;6.956;2023-12-29T09:10:26;2.17;;;1.57;;
16468;SDS011;8345;50.902;6.956;2023-12-29T09:12:53;2.57;;;1.50;;
16468;SDS011;8345;50.902;6.956;2023-12-29T09:15:20;3.03;;;1.23;;
16468;SDS011;8345;50.902;6.956;2023-12-29T09:17:48;3.20;;;1.40;;
16468;SDS011;8345;50.902;6.956;2023-12-29T09:20:17;2.27;;;1.30;;
16468;SDS011;8345;50.902;6.956;2023-12-29T09:22:44;4.60;;;1.60;;
16468;SDS011;8345;50.902;6.956;2023-12-29T09:25:11;3.37;;;1.33;;
16468;SDS011;8345;50.902;6.956;2023-12-29T09:27:38;5.13;;;1.40;;
16468;SDS011;8345;50.902;6.956;2023-12-29T09:30:06;6.90;;;1.70;;
16468;SDS011;8345;50.902;6.956;2023-12-29T09:32:33;3.90;;;1.63;;
16468;SDS011;8345;50.902;6.956;2023-12-29T09:35:01;4.63;;;1.50;;
16468;SDS011;8345;50.902;6.956;2023-12-29T09:37:30;4.10;;;1.23;;
16468;SDS011;8345;50.902;6.956;2023-12-29T09:39:57;5.07;;;1.53;;
16468;SDS011;8345;50.902;6.956;2023-12-29T09:42:24;4.03;;;1.43;;
16468;SDS011;8345;50.902;6.956;2023-12-29T09:44:53;1.90;;;1.00;;
16468;SDS011;8345;50.902;6.956;2023-12-29T09:47:22;2.80;;;1.00;;
16468;SDS011;8345;50.902;6.956;2023-12-29T09:49:49;2.47;;;1.33;;
16468;SDS011;8345;50.902;6.956;2023-12-29T09:52:18;2.70;;;1.10;;
16468;SDS011;8345;50.902;6.956;2023-12-29T09:54:48;2.63;;;1.00;;
16468;SDS011;8345;50.902;6.956;2023-12-29T09:57:15;2.67;;;1.10;;
16468;SDS011;8345;50.902;6.956;2023-12-29T09:59:43;3.20;;;1.00;;
16468;SDS011;8345;50.902;6.956;2023-12-29T10:02:12;2.63;;;0.83;;
16468;SDS011;8345;50.902;6.956;2023-12-29T10:04:39;1.93;;;0.83;;
16468;SDS011;8345;50.902;6.956;2023-12-29T10:07:07;2.33;;;1.00;;
16468;SDS011;8345;50.902;6.956;2023-12-29T10:09:34;0.80;;;0.70;;
16468;SDS011;8345;50.902;6.956;2023-12-29T10:12:05;3.63;;;1.37;;
16468;SDS011;8345;50.902;6.956;2023-12-29T10:14:36;1.77;;;0.73;;
16468;SDS011;8345;50.902;6.956;2023-12-29T10:17:06;1.90;;;0.80;;
16468;SDS011;8345;50.902;6.956;2023-12-29T10:19:37;2.07;;;0.90;;
16468;SDS011;8345;50.902;6.956;2023-12-29T10:22:06;1.50;;;0.70;;
16468;SDS011;8345;50.902;6.956;2023-12-29T10:24:35;1.57;;;0.70;;
16468;SDS011;8345;50.902;6.956;2023-12-29T10:27:02;1.50;;;0.67;;
16468;SDS011;8345;50.902;6.956;2023-12-29T10:29:31;1.40;;;0.80;;
16468;SDS011;8345;50.902;6.956;2023-12-29T10:31:58;1.60;;;0.53;;
16468;SDS011;8345;50.902;6.956;2023-12-29T10:34:26;1.33;;;0.70;;
16468;SDS011;8345;50.902;6.956;2023-12-29T10:36:55;1.80;;;1.13;;
16468;SDS011;8345;50.902;6.956;2023-12-29T10:39:22;1.57;;;0.70;;
16468;SDS011;8345;50.902;6.956;2023-12-29T10:41:49;1.07;;;0.60;;
16468;SDS011;8345;50.902;6.956;2023-12-29T10:44:17;1.80;;;0.80;;
16468;SDS011;8345;50.902;6.956;2023-12-29T10:46:45;4.00;;;0.93;;
16468;SDS011;8345;50.902;6.956;2023-12-29T10:49:13;0.90;;;0.60;;
16468;SDS011;8345;50.902;6.956;2023-12-29T10:51:40;1.27;;;0.60;;
16468;SDS011;8345;50.902;6.956;2023-12-29T10:54:07;2.37;;;0.60;;
16468;SDS011;8345;50.902;6.956;2023-12-29T10:56:34;0.87;;;0.60;;
16468;SDS011;8345;50.902;6.956;2023-12-29T10:59:02;1.73;;;0.80;;
16468;SDS011;8345;50.902;6.956;2023-12-29T11:01:29;3.53;;;1.00;;
16468;SDS011;8345;50.902;6.956;2023-12-29T11:03:59;1.43;;;0.80;;
16468;SDS011;8345;50.902;6.956;2023-12-29T11:06:27;1.80;;;0.70;;
16468;SDS011;8345;50.902;6.956;2023-12-29T11:08:55;2.17;;;0.83;;
16468;SDS011;8345;50.902;6.956;2023-12-29T11:11:22;0.57;;;0.50;;
16468;SDS011;8345;50.902;6.956;2023-12-29T11:13:50;1.10;;;0.60;;
16468;SDS011;8345;50.902;6.956;2023-12-29T11:16:18;1.53;;;0.80;;
16468;SDS011;8345;50.902;6.956;2023-12-29T11:18:47;0.90;;;0.60;;
16468;SDS011;8345;50.902;6.956;2023-12-29T11:21:18;0.97;;;0.70;;
16468;SDS011;8345;50.902;6.956;2023-12-29T11:23:46;0.73;;;0.60;;
16468;SDS011;8345;50.902;6.956;2023-12-29T11:26:14;0.90;;;0.60;;
16468;SDS011;8345;50.902;6.956;2023-12-29T11:28:42;0.80;;;0.50;;
16468;SDS011;8345;50.902;6.956;2023-12-29T11:31:10;2.00;;;0.57;;
16468;SDS011;8345;50.902;6.956;2023-12-29T11:33:38;1.17;;;0.60;;
16468;SDS011;8345;50.902;6.956;2023-12-29T11:36:08;1.10;;;0.70;;
16468;SDS011;8345;50.902;6.956;2023-12-29T11:38:44;3.73;;;0.90;;
16468;SDS011;8345;50.902;6.956;2023-12-29T11:41:17;1.63;;;0.50;;
16468;SDS011;8345;50.902;6.956;2023-12-29T11:43:55;1.97;;;0.50;;
16468;SDS011;8345;50.902;6.956;2023-12-29T11:46:32;0.70;;;0.50;;
16468;SDS011;8345;50.902;6.956;2023-12-29T11:49:00;1.10;;;0.60;;
16468;SDS011;8345;50.902;6.956;2023-12-29T11:51:32;1.40;;;0.70;;
16468;SDS011;8345;50.902;6.956;2023-12-29T11:54:01;0.73;;;0.60;;
16468;SDS011;8345;50.902;6.956;2023-12-29T11:56:35;1.63;;;0.53;;
16468;SDS011;8345;50.902;6.956;2023-12-29T11:59:16;1.53;;;0.60;;
16468;SDS011;8345;50.902;6.956;2023-12-29T12:01:43;1.10;;;0.50;;
16468;SDS011;8345;50.902;6.956;2023-12-29T12:06:56;1.70;;;0.70;;
16468;SDS011;8345;50.902;6.956;2023-12-29T12:09:25;1.43;;;0.70;;
16468;SDS011;8345;50.902;6.956;2023-12-29T12:11:52;1.60;;;0.93;;
16468;SDS011;8345;50.902;6.956;2023-12-29T12:17:05;1.23;;;0.80;;
16468;SDS011;8345;50.902;6.956;2023-12-29T12:19:32;0.93;;;0.60;;
16468;SDS011;8345;50.902;6.956;2023-12-29T12:22:00;0.70;;;0.63;;
16468;SDS011;8345;50.902;6.956;2023-12-29T12:24:30;0.67;;;0.50;;
16468;SDS011;8345;50.902;6.956;2023-12-29T12:26:57;2.60;;;0.50;;
16468;SDS011;8345;50.902;6.956;2023-12-29T12:29:25;0.60;;;0.50;;
16468;SDS011;8345;50.902;6.956;2023-12-29T12:31:53;0.93;;;0.60;;
16468;SDS011;8345;50.902;6.956;2023-12-29T12:34:21;1.10;;;0.50;;
16468;SDS011;8345;50.902;6.956;2023-12-29T12:36:48;1.73;;;0.50;;
16468;SDS011;8345;50.902;6.956;2023-12-29T12:39:16;0.90;;;0.40;;
16468;SDS011;8345;50.902;6.956;2023-12-29T12:41:45;0.87;;;0.40;;
16468;SDS011;8345;50.902;6.956;2023-12-29T12:44:12;0.83;;;0.40;;
16468;SDS011;8345;50.902;6.956;2023-12-29T12:46:41;1.63;;;0.50;;
16468;SDS011;8345;50.902;6.956;2023-12-29T12:49:11;1.00;;;0.60;;
16468;SDS011;8345;50.902;6.956;2023-12-29T12:51:38;0.93;;;0.40;;
16468;SDS011;8345;50.902;6.956;2023-12-29T12:54:06;1.03;;;0.73;;
16468;SDS011;8345;50.902;6.956;2023-12-29T12:56:33;0.70;;;0.70;;
16468;SDS011;8345;50.902;6.956;2023-12-29T12:59:02;1.23;;;0.67;;
16468;SDS011;8345;50.902;6.956;2023-12-29T13:01:30;0.70;;;0.40;;
16468;SDS011;8345;50.902;6.956;2023-12-29T13:04:01;1.20;;;0.63;;
16468;SDS011;8345;50.902;6.956;2023-12-29T13:06:30;1.57;;;0.67;;
16468;SDS011;8345;50.902;6.956;2023-12-29T13:08:57;0.50;;;0.50;;
16468;SDS011;8345;50.902;6.956;2023-12-29T13:11:25;0.90;;;0.50;;
16468;SDS011;8345;50.902;6.956;2023-12-29T13:13:52;1.60;;;0.60;;
16468;SDS011;8345;50.902;6.956;2023-12-29T13:16:29;2.50;;;0.70;;
16468;SDS011;8345;50.902;6.956;2023-12-29T13:18:56;0.87;;;0.50;;
16468;SDS011;8345;50.902;6.956;2023-12-29T13:21:24;1.03;;;0.57;;
16468;SDS011;8345;50.902;6.956;2023-12-29T13:23:51;1.23;;;0.40;;
16468;SDS011;8345;50.902;6.956;2023-12-29T13:26:20;1.17;;;0.63;;
16468;SDS011;8345;50.902;6.956;2023-12-29T13:28:48;1.73;;;0.70;;
16468;SDS011;8345;50.902;6.956;2023-12-29T13:31:15;1.17;;;0.60;;
16468;SDS011;8345;50.902;6.956;2023-12-29T13:33:46;1.77;;;0.50;;
16468;SDS011;8345;50.902;6.956;2023-12-29T13:36:17;1.17;;;0.50;;
16468;SDS011;8345;50.902;6.956;2023-12-29T13:38:49;0.87;;;0.50;;
16468;SDS011;8345;50.902;6.956;2023-12-29T13:41:17;1.33;;;0.63;;
16468;SDS011;8345;50.902;6.956;2023-12-29T13:43:44;1.10;;;0.53;;
16468;SDS011;8345;50.902;6.956;2023-12-29T13:46:12;0.57;;;0.57;;
16468;SDS011;8345;50.902;6.956;2023-12-29T13:48:40;1.37;;;0.50;;
16468;SDS011;8345;50.902;6.956;2023-12-29T13:51:09;1.03;;;0.80;;
16468;SDS011;8345;50.902;6.956;2023-12-29T13:53:36;0.93;;;0.70;;
16468;SDS011;8345;50.902;6.956;2023-12-29T13:56:07;1.40;;;0.67;;
16468;SDS011;8345;50.902;6.956;2023-12-29T13:58:34;1.60;;;0.30;;
16468;SDS011;8345;50.902;6.956;2023-12-29T14:01:03;0.93;;;0.70;;
16468;SDS011;8345;50.902;6.956;2023-12-29T14:03:31;1.70;;;0.80;;
16468;SDS011;8345;50.902;6.956;2023-12-29T14:05:59;1.70;;;0.70;;
16468;SDS011;8345;50.902;6.956;2023-12-29T14:08:32;1.47;;;0.70;;
16468;SDS011;8345;50.902;6.956;2023-12-29T14:11:00;1.47;;;0.73;;
16468;SDS011;8345;50.902;6.956;2023-12-29T14:13:27;2.07;;;0.93;;
16468;SDS011;8345;50.902;6.956;2023-12-29T14:15:57;2.57;;;0.87;;
16468;SDS011;8345;50.902;6.956;2023-12-29T14:18:33;3.53;;;0.80;;
16468;SDS011;8345;50.902;6.956;2023-12-29T14:21:01;2.30;;;0.93;;
16468;SDS011;8345;50.902;6.956;2023-12-29T14:23:30;1.73;;;0.80;;
16468;SDS011;8345;50.902;6.956;2023-12-29T14:26:01;1.83;;;1.23;;
16468;SDS011;8345;50.902;6.956;2023-12-29T14:28:28;3.73;;;1.43;;
16468;SDS011;8345;50.902;6.956;2023-12-29T14:31:00;4.47;;;1.83;;
16468;SDS011;8345;50.902;6.956;2023-12-29T14:33:28;4.10;;;1.90;;
16468;SDS011;8345;50.902;6.956;2023-12-29T14:35:55;3.97;;;1.70;;
16468;SDS011;8345;50.902;6.956;2023-12-29T14:38:23;4.10;;;1.70;;
16468;SDS011;8345;50.902;6.956;2023-12-29T14:40:51;1.27;;;1.10;;
16468;SDS011;8345;50.902;6.956;2023-12-29T14:43:21;2.40;;;1.40;;
16468;SDS011;8345;50.902;6.956;2023-12-29T14:45:49;2.50;;;1.23;;
16468;SDS011;8345;50.902;6.956;2023-12-29T14:48:16;2.20;;;1.17;;
16468;SDS011;8345;50.902;6.956;2023-12-29T14:50:44;2.10;;;1.27;;
16468;SDS011;8345;50.902;6.956;2023-12-29T14:53:11;1.23;;;0.83;;
16468;SDS011;8345;50.902;6.956;2023-12-29T14:55:38;1.90;;;1.23;;
16468;SDS011;8345;50.902;6.956;2023-12-29T14:58:07;2.17;;;1.23;;
16468;SDS011;8345;50.902;6.956;2023-12-29T15:00:34;2.10;;;1.20;;
16468;SDS011;8345;50.902;6.956;2023-12-29T15:03:01;1.30;;;0.90;;
16468;SDS011;8345;50.902;6.956;2023-12-29T15:05:28;3.00;;;1.10;;
16468;SDS011;8345;50.902;6.956;2023-12-29T15:07:55;1.50;;;1.00;;
16468;SDS011;8345;50.902;6.956;2023-12-29T15:10:23;1.60;;;1.00;;